Time;durP1;ratioP1;P1;durP2;ratioP2;P2;SDS_P1;SDS_P2;PMS_P1;PMS_P2;Temp;Humidity;BMP_temperature;BMP_pressure;BME280_temperature;BME280_humidity;BME280_pressure;Samples;Min_cycle;Max_cycle;Signal;HPM_P1;HPM_P2
2023/09/08 00:00:58;;;;;;;4.80;4.40;;;;;;;;;;5042156;28;20390;-78
2023/09/08 00:03:24;;;;;;;4.73;4.43;;;;;;;;;;5042323;28;20403;-78
2023/09/08 00:05:50;;;;;;;4.20;3.80;;;;;;;;;;5042705;28;20398;-78
2023/09/08 00:08:16;;;;;;;4.50;4.10;;;;;;;;;;5042210;28;21090;-78
2023/09/08 00:10:42;;;;;;;4.60;4.30;;;;;;;;;;5042980;28;20394;-78
2023/09/08 00:13:08;;;;;;;4.47;4.18;;;;;;;;;;5041462;28;20741;-78
2023/09/08 00:15:35;;;;;;;4.65;4.35;;;;;;;;;;5042804;28;20474;-78
2023/09/08 00:18:01;;;;;;;4.63;4.32;;;;;;;;;;5043057;28;20379;-78
2023/09/08 00:20:27;;;;;;;4.70;4.30;;;;;;;;;;5037787;28;20799;-78
2023/09/08 00:22:53;;;;;;;4.43;4.13;;;;;;;;;;5043091;28;20394;-78
2023/09/08 00:25:19;;;;;;;4.70;4.28;;;;;;;;;;5042045;28;20383;-78
2023/09/08 00:27:45;;;;;;;4.80;4.40;;;;;;;;;;5041124;28;20422;-78
2023/09/08 00:30:11;;;;;;;4.63;4.30;;;;;;;;;;5042028;28;20447;-78
2023/09/08 00:32:37;;;;;;;4.88;4.47;;;;;;;;;;5042443;28;20890;-78
2023/09/08 00:35:03;;;;;;;5.10;4.70;;;;;;;;;;5042368;28;20438;-78
2023/09/08 00:37:29;;;;;;;4.50;4.20;;;;;;;;;;5041468;28;20860;-78
2023/09/08 00:39:55;;;;;;;4.90;4.50;;;;;;;;;;5041111;28;20393;-78
2023/09/08 00:42:21;;;;;;;5.18;4.78;;;;;;;;;;5042381;28;20379;-78
2023/09/08 00:44:47;;;;;;;4.57;4.27;;;;;;;;;;5041327;28;20872;-78
2023/09/08 00:47:13;;;;;;;4.37;4.00;;;;;;;;;;5041567;28;20474;-78
2023/09/08 00:49:39;;;;;;;5.10;4.70;;;;;;;;;;5049874;28;20455;-78
2023/09/08 00:52:05;;;;;;;5.03;4.63;;;;;;;;;;5041462;28;20415;-78
2023/09/08 00:54:31;;;;;;;5.18;4.25;;;;;;;;;;5040952;28;20753;-78
2023/09/08 00:56:58;;;;;;;4.55;4.18;;;;;;;;;;5036740;28;20414;-78
2023/09/08 00:59:24;;;;;;;4.45;4.15;;;;;;;;;;5041372;28;20387;-78
2023/09/08 01:01:50;;;;;;;4.90;4.50;;;;;;;;;;5041295;28;20395;-78
2023/09/08 01:04:16;;;;;;;4.90;4.60;;;;;;;;;;5040584;28;20838;-78
2023/09/08 01:06:43;;;;;;;5.03;4.53;;;;;;;;;;5039690;28;20470;-78
2023/09/08 01:09:10;;;;;;;5.30;4.90;;;;;;;;;;5036127;28;20778;-78
2023/09/08 01:11:36;;;;;;;4.88;4.55;;;;;;;;;;5040177;28;20384;-78
2023/09/08 01:14:02;;;;;;;4.80;4.40;;;;;;;;;;5039398;28;20736;-78
2023/09/08 01:16:28;;;;;;;4.95;4.45;;;;;;;;;;5040031;28;20505;-77
2023/09/08 01:18:55;;;;;;;5.40;4.43;;;;;;;;;;5042001;28;20387;-78
2023/09/08 01:21:43;;;;;;;4.47;4.13;;;;;;;;;;5042085;28;20470;-78
2023/09/08 01:24:29;;;;;;;4.40;4.10;;;;;;;;;;5040137;28;20446;-78
2023/09/08 01:26:55;;;;;;;5.63;4.20;;;;;;;;;;5040288;28;20385;-78
2023/09/08 01:29:24;;;;;;;4.60;4.25;;;;;;;;;;5039826;28;20434;-78
2023/09/08 01:31:50;;;;;;;5.15;4.55;;;;;;;;;;5038686;28;20480;-78
2023/09/08 01:34:16;;;;;;;4.50;4.20;;;;;;;;;;5039215;28;20418;-78
2023/09/08 01:36:42;;;;;;;5.00;4.50;;;;;;;;;;5038953;28;20450;-78
2023/09/08 01:39:08;;;;;;;4.63;4.22;;;;;;;;;;5039985;28;20387;-78
2023/09/08 01:41:34;;;;;;;5.13;4.72;;;;;;;;;;5037841;28;20407;-78
2023/09/08 01:44:05;;;;;;;4.78;4.47;;;;;;;;;;5039844;28;20400;-78
2023/09/08 01:46:31;;;;;;;5.05;4.65;;;;;;;;;;5039635;28;20383;-78
2023/09/08 01:48:57;;;;;;;4.88;4.47;;;;;;;;;;5040755;28;20399;-78
2023/09/08 01:51:23;;;;;;;5.13;4.68;;;;;;;;;;5039811;28;20384;-78
2023/09/08 01:53:48;;;;;;;5.25;4.85;;;;;;;;;;5039028;28;20779;-78
2023/09/08 01:56:14;;;;;;;4.80;4.45;;;;;;;;;;5039292;28;20415;-78
2023/09/08 01:58:40;;;;;;;5.20;4.70;;;;;;;;;;5038285;28;20441;-78
2023/09/08 02:01:06;;;;;;;5.63;4.70;;;;;;;;;;5039971;28;20403;-78
2023/09/08 02:03:33;;;;;;;5.47;5.07;;;;;;;;;;5039847;28;20525;-77
2023/09/08 02:05:59;;;;;;;5.60;5.10;;;;;;;;;;5038571;28;20381;-78
2023/09/08 02:08:25;;;;;;;5.00;4.68;;;;;;;;;;5039578;28;20470;-78
2023/09/08 02:10:51;;;;;;;5.05;4.68;;;;;;;;;;5038264;28;20396;-78
2023/09/08 02:13:17;;;;;;;4.97;4.57;;;;;;;;;;5028210;28;20391;-78
2023/09/08 02:15:43;;;;;;;4.93;4.53;;;;;;;;;;5038257;28;20430;-77
2023/09/08 02:18:09;;;;;;;5.00;4.60;;;;;;;;;;5036176;28;20457;-78
2023/09/08 02:20:35;;;;;;;5.15;4.70;;;;;;;;;;5035577;28;20383;-78
2023/09/08 02:23:05;;;;;;;5.05;4.65;;;;;;;;;;5026638;28;20479;-80
2023/09/08 02:25:31;;;;;;;4.85;4.50;;;;;;;;;;5033342;28;20394;-78
2023/09/08 02:27:57;;;;;;;4.70;4.40;;;;;;;;;;5039837;28;20391;-78
2023/09/08 02:30:23;;;;;;;5.50;5.10;;;;;;;;;;5040830;28;20379;-78
2023/09/08 02:32:49;;;;;;;5.80;5.40;;;;;;;;;;5040462;28;20398;-77
2023/09/08 02:35:15;;;;;;;5.00;4.60;;;;;;;;;;5041149;28;20427;-78
2023/09/08 02:37:40;;;;;;;5.03;4.72;;;;;;;;;;5041120;28;20386;-78
2023/09/08 02:40:07;;;;;;;5.60;5.20;;;;;;;;;;5040878;28;20464;-78
2023/09/08 02:42:33;;;;;;;5.05;4.65;;;;;;;;;;5041116;28;20389;-78
2023/09/08 02:44:59;;;;;;;5.75;5.25;;;;;;;;;;5041320;28;20478;-78
2023/09/08 02:47:25;;;;;;;5.20;4.70;;;;;;;;;;5041897;28;20394;-78
2023/09/08 02:49:51;;;;;;;5.45;5.05;;;;;;;;;;5044908;28;20387;-77
2023/09/08 02:52:19;;;;;;;5.07;4.67;;;;;;;;;;5043651;28;20391;-78
2023/09/08 02:54:45;;;;;;;5.30;4.90;;;;;;;;;;5042687;28;20418;-78
2023/09/08 02:57:11;;;;;;;5.35;4.95;;;;;;;;;;5043113;28;20458;-78
2023/09/08 02:59:37;;;;;;;5.32;4.93;;;;;;;;;;5041646;28;20382;-78
2023/09/08 03:02:03;;;;;;;5.55;5.15;;;;;;;;;;5042115;28;20375;-77
2023/09/08 03:04:29;;;;;;;5.65;5.15;;;;;;;;;;5041667;28;20446;-78
2023/09/08 03:06:55;;;;;;;5.38;4.97;;;;;;;;;;5041349;28;20698;-78
2023/09/08 03:09:21;;;;;;;5.70;5.30;;;;;;;;;;5040890;28;20441;-78
2023/09/08 03:11:47;;;;;;;6.07;5.57;;;;;;;;;;5040426;28;20413;-78
2023/09/08 03:14:13;;;;;;;5.57;5.18;;;;;;;;;;5040304;28;20395;-78
2023/09/08 03:16:39;;;;;;;5.53;5.13;;;;;;;;;;5039520;28;20434;-78
2023/09/08 03:19:05;;;;;;;5.22;4.82;;;;;;;;;;5040028;28;20380;-77
2023/09/08 03:21:31;;;;;;;5.72;5.30;;;;;;;;;;5039924;28;20383;-78
2023/09/08 03:23:57;;;;;;;5.85;5.45;;;;;;;;;;5040110;28;20732;-78
2023/09/08 03:26:23;;;;;;;5.80;5.40;;;;;;;;;;5039923;28;20411;-78
2023/09/08 03:28:49;;;;;;;5.60;5.18;;;;;;;;;;5038992;28;20417;-78
2023/09/08 03:31:15;;;;;;;5.65;5.25;;;;;;;;;;5039605;28;20395;-78
2023/09/08 03:33:42;;;;;;;6.07;5.57;;;;;;;;;;5039123;28;20729;-78
2023/09/08 03:36:08;;;;;;;5.35;4.95;;;;;;;;;;5039469;28;20414;-78
2023/09/08 03:38:36;;;;;;;5.53;5.13;;;;;;;;;;5039727;28;20804;-78
2023/09/08 03:41:02;;;;;;;5.60;5.10;;;;;;;;;;5039146;28;20879;-77
2023/09/08 03:43:29;;;;;;;5.20;4.82;;;;;;;;;;5039094;28;20383;-78
2023/09/08 03:45:54;;;;;;;5.22;4.93;;;;;;;;;;5038700;28;20395;-78
2023/09/08 03:48:20;;;;;;;5.30;4.90;;;;;;;;;;5038393;28;20398;-78
2023/09/08 03:50:46;;;;;;;5.40;5.07;;;;;;;;;;5044172;28;20468;-78
2023/09/08 03:53:13;;;;;;;5.40;5.00;;;;;;;;;;5041774;28;20453;-78
2023/09/08 03:55:39;;;;;;;5.50;5.10;;;;;;;;;;5039086;28;20411;-78
2023/09/08 03:58:05;;;;;;;5.43;5.03;;;;;;;;;;5038509;28;20384;-78
2023/09/08 04:00:31;;;;;;;5.32;4.93;;;;;;;;;;5039175;28;20410;-78
2023/09/08 04:02:57;;;;;;;5.38;4.97;;;;;;;;;;5038361;28;20375;-77
2023/09/08 04:05:23;;;;;;;5.95;5.45;;;;;;;;;;5038786;28;20380;-78
2023/09/08 04:07:49;;;;;;;5.50;5.10;;;;;;;;;;5038058;28;20410;-78
2023/09/08 04:10:15;;;;;;;5.65;5.20;;;;;;;;;;5038624;28;20791;-78
2023/09/08 04:12:41;;;;;;;5.50;5.00;;;;;;;;;;5038950;28;20505;-78
2023/09/08 04:15:07;;;;;;;5.50;5.00;;;;;;;;;;5034714;28;20407;-78
2023/09/08 04:17:35;;;;;;;5.47;5.00;;;;;;;;;;5039579;28;20390;-78
2023/09/08 04:20:01;;;;;;;5.37;4.97;;;;;;;;;;5042121;28;20382;-79
2023/09/08 04:22:27;;;;;;;5.50;5.00;;;;;;;;;;5034585;28;20391;-78
2023/09/08 04:24:54;;;;;;;5.55;5.15;;;;;;;;;;5037249;28;20413;-78
2023/09/08 04:27:20;;;;;;;5.53;5.15;;;;;;;;;;5037633;28;20379;-78
2023/09/08 04:29:46;;;;;;;4.97;4.67;;;;;;;;;;5036257;28;20387;-78
2023/09/08 04:32:12;;;;;;;5.70;5.30;;;;;;;;;;5036451;28;20390;-78
2023/09/08 04:34:39;;;;;;;5.82;5.38;;;;;;;;;;5036482;28;20794;-79
2023/09/08 04:37:05;;;;;;;5.53;5.03;;;;;;;;;;5042209;28;20390;-78
2023/09/08 04:39:31;;;;;;;5.80;5.40;;;;;;;;;;5038239;28;20383;-78
2023/09/08 04:41:57;;;;;;;5.95;5.55;;;;;;;;;;5039709;28;20387;-79
2023/09/08 04:44:23;;;;;;;5.43;5.03;;;;;;;;;;5039134;28;20430;-78
2023/09/08 04:46:49;;;;;;;5.40;4.90;;;;;;;;;;5039381;28;20379;-78
2023/09/08 04:49:15;;;;;;;5.60;5.20;;;;;;;;;;5039333;28;20429;-78
2023/09/08 04:51:41;;;;;;;6.13;5.53;;;;;;;;;;5036513;28;20387;-78
2023/09/08 04:54:07;;;;;;;5.70;5.30;;;;;;;;;;5038121;28;20402;-78
2023/09/08 04:56:33;;;;;;;5.90;5.40;;;;;;;;;;5034599;28;20500;-78
2023/09/08 04:59:00;;;;;;;5.72;5.22;;;;;;;;;;5028017;28;20740;-79
2023/09/08 05:01:26;;;;;;;5.47;5.07;;;;;;;;;;5041475;28;20381;-79
2023/09/08 05:03:52;;;;;;;5.38;4.97;;;;;;;;;;5036562;28;20395;-78
2023/09/08 05:06:18;;;;;;;5.53;5.13;;;;;;;;;;5032796;28;20452;-77
2023/09/08 05:08:45;;;;;;;6.00;5.40;;;;;;;;;;5034920;28;20478;-79
2023/09/08 05:11:11;;;;;;;5.55;5.05;;;;;;;;;;5035952;28;20430;-78
2023/09/08 05:13:37;;;;;;;5.70;5.30;;;;;;;;;;5035506;28;20391;-78
2023/09/08 05:16:11;;;;;;;5.60;5.20;;;;;;;;;;5036529;28;20410;-78
2023/09/08 05:18:37;;;;;;;5.82;5.43;;;;;;;;;;5035433;28;20403;-78
2023/09/08 05:21:04;;;;;;;6.00;5.50;;;;;;;;;;5034966;28;20371;-78
2023/09/08 05:23:30;;;;;;;5.73;5.33;;;;;;;;;;5035034;28;20383;-78
2023/09/08 05:25:56;;;;;;;5.60;5.10;;;;;;;;;;5035515;28;20801;-78
2023/09/08 05:28:22;;;;;;;5.88;5.47;;;;;;;;;;5035016;28;20391;-78
2023/09/08 05:30:48;;;;;;;6.68;6.18;;;;;;;;;;5034791;28;20379;-78
2023/09/08 05:33:14;;;;;;;5.45;5.05;;;;;;;;;;5035041;28;20760;-78
2023/09/08 05:35:40;;;;;;;6.05;5.47;;;;;;;;;;5037939;28;20465;-78
2023/09/08 05:38:06;;;;;;;6.25;5.75;;;;;;;;;;5038203;28;20383;-78
2023/09/08 05:40:32;;;;;;;5.97;5.57;;;;;;;;;;5038035;28;20461;-78
2023/09/08 05:42:58;;;;;;;6.43;5.93;;;;;;;;;;5038003;28;20445;-79
2023/09/08 05:45:25;;;;;;;6.25;5.75;;;;;;;;;;5039096;28;20853;-79
2023/09/08 05:47:51;;;;;;;6.75;6.25;;;;;;;;;;5038706;28;20419;-78
2023/09/08 05:50:17;;;;;;;5.97;5.57;;;;;;;;;;5038948;28;20386;-79
2023/09/08 05:52:43;;;;;;;6.72;6.03;;;;;;;;;;5043321;28;20387;-79
2023/09/08 05:55:10;;;;;;;6.03;5.63;;;;;;;;;;5047381;28;20426;-79
2023/09/08 05:57:36;;;;;;;6.50;6.00;;;;;;;;;;5047131;28;20387;-79
2023/09/08 06:00:05;;;;;;;6.35;5.75;;;;;;;;;;5047411;28;20458;-79
2023/09/08 06:02:31;;;;;;;6.53;5.87;;;;;;;;;;5044239;28;20859;-78
2023/09/08 06:04:57;;;;;;;6.65;6.20;;;;;;;;;;5039268;28;20420;-79
2023/09/08 06:07:23;;;;;;;5.93;5.53;;;;;;;;;;5039310;28;20425;-78
2023/09/08 06:09:49;;;;;;;6.20;5.70;;;;;;;;;;5040119;28;20406;-78
2023/09/08 06:12:15;;;;;;;5.95;5.55;;;;;;;;;;5041664;28;20379;-79
2023/09/08 06:14:41;;;;;;;6.43;5.85;;;;;;;;;;5041630;28;20379;-79
2023/09/08 06:17:08;;;;;;;6.32;5.82;;;;;;;;;;5039785;28;20390;-78
2023/09/08 06:19:34;;;;;;;6.32;5.72;;;;;;;;;;5039880;28;20383;-78
2023/09/08 06:22:00;;;;;;;6.03;5.50;;;;;;;;;;5039871;28;20387;-78
2023/09/08 06:24:26;;;;;;;6.20;5.60;;;;;;;;;;5039517;28;20763;-79
2023/09/08 06:26:52;;;;;;;6.95;6.35;;;;;;;;;;5039469;28;20398;-79
2023/09/08 06:29:18;;;;;;;6.07;5.50;;;;;;;;;;5040900;28;20693;-78
2023/09/08 06:31:44;;;;;;;6.38;5.88;;;;;;;;;;5037711;28;20391;-79
2023/09/08 06:34:10;;;;;;;6.05;5.43;;;;;;;;;;5039467;28;20383;-78
2023/09/08 06:36:36;;;;;;;6.23;5.63;;;;;;;;;;5039776;28;20422;-78
2023/09/08 06:39:03;;;;;;;6.18;5.70;;;;;;;;;;5039836;28;20413;-78
2023/09/08 06:41:29;;;;;;;5.90;5.50;;;;;;;;;;5040104;28;20768;-79
2023/09/08 06:43:55;;;;;;;5.90;5.50;;;;;;;;;;5040707;28;20394;-78
2023/09/08 06:46:21;;;;;;;6.30;5.80;;;;;;;;;;5039706;28;20387;-78
2023/09/08 06:48:47;;;;;;;6.13;5.65;;;;;;;;;;5040627;28;20395;-78
2023/09/08 06:51:14;;;;;;;6.10;5.60;;;;;;;;;;5039297;28;20548;-78
2023/09/08 06:53:40;;;;;;;5.80;5.35;;;;;;;;;;5040546;28;20383;-78
2023/09/08 06:56:05;;;;;;;6.20;5.70;;;;;;;;;;5035665;28;20428;-78
2023/09/08 06:58:31;;;;;;;5.70;5.30;;;;;;;;;;5041817;28;20855;-79
2023/09/08 07:00:57;;;;;;;6.45;5.72;;;;;;;;;;5041645;28;20399;-79
2023/09/08 07:03:24;;;;;;;5.85;5.45;;;;;;;;;;5039993;28;20733;-78
2023/09/08 07:05:50;;;;;;;6.20;5.80;;;;;;;;;;5040542;28;20393;-78
2023/09/08 07:08:17;;;;;;;6.20;5.75;;;;;;;;;;5037124;28;20729;-80
2023/09/08 07:10:44;;;;;;;7.05;6.45;;;;;;;;;;5057733;28;20998;-78
2023/09/08 07:13:10;;;;;;;7.03;5.85;;;;;;;;;;5056208;28;20473;-78
2023/09/08 07:15:36;;;;;;;6.65;5.57;;;;;;;;;;5042202;28;20407;-78
2023/09/08 07:18:02;;;;;;;6.90;6.40;;;;;;;;;;5042115;28;20430;-78
2023/09/08 07:20:28;;;;;;;6.70;6.20;;;;;;;;;;5043171;28;20383;-78
2023/09/08 07:22:54;;;;;;;6.47;5.97;;;;;;;;;;5046711;28;20433;-78
2023/09/08 07:25:20;;;;;;;6.70;6.13;;;;;;;;;;5064421;28;20477;-78
2023/09/08 07:27:46;;;;;;;6.30;5.75;;;;;;;;;;5064006;28;20443;-78
2023/09/08 07:30:12;;;;;;;6.22;5.70;;;;;;;;;;5058074;28;20387;-79
2023/09/08 07:32:39;;;;;;;5.35;4.95;;;;;;;;;;5044981;28;20391;-80
2023/09/08 07:35:05;;;;;;;6.28;5.80;;;;;;;;;;5034890;28;20403;-78
2023/09/08 07:37:31;;;;;;;5.22;4.82;;;;;;;;;;5053042;28;20427;-77
2023/09/08 07:39:57;;;;;;;6.20;5.60;;;;;;;;;;5057908;28;20785;-78
2023/09/08 07:42:25;;;;;;;6.10;5.60;;;;;;;;;;5055644;28;20381;-78
2023/09/08 07:44:51;;;;;;;7.00;5.30;;;;;;;;;;5042454;28;20774;-80
2023/09/08 07:47:17;;;;;;;6.38;5.88;;;;;;;;;;5064080;28;20396;-78
2023/09/08 07:49:46;;;;;;;6.53;5.93;;;;;;;;;;5063153;28;20723;-79
2023/09/08 07:52:12;;;;;;;6.10;5.60;;;;;;;;;;5052741;28;20409;-78
2023/09/08 07:54:38;;;;;;;6.43;5.63;;;;;;;;;;5051754;28;20387;-78
2023/09/08 07:57:04;;;;;;;5.57;5.07;;;;;;;;;;5046837;28;20441;-78
2023/09/08 07:59:30;;;;;;;6.00;5.60;;;;;;;;;;5062226;28;20392;-78
2023/09/08 08:01:56;;;;;;;5.93;5.53;;;;;;;;;;5051638;28;20426;-78
2023/09/08 08:04:22;;;;;;;6.20;5.60;;;;;;;;;;5049381;28;20387;-78
2023/09/08 08:06:49;;;;;;;6.78;6.25;;;;;;;;;;5043655;28;20724;-78
2023/09/08 08:09:15;;;;;;;6.72;6.15;;;;;;;;;;5048114;28;20382;-80
2023/09/08 08:11:41;;;;;;;6.57;6.07;;;;;;;;;;5055796;28;20775;-78
2023/09/08 08:14:07;;;;;;;8.05;6.82;;;;;;;;;;5057118;28;20389;-78
2023/09/08 08:16:34;;;;;;;8.30;7.03;;;;;;;;;;5038413;28;20411;-78
2023/09/08 08:19:00;;;;;;;7.30;6.60;;;;;;;;;;5058181;28;20416;-78
2023/09/08 08:21:26;;;;;;;7.30;6.40;;;;;;;;;;5062581;28;20869;-80
2023/09/08 08:23:52;;;;;;;8.18;7.00;;;;;;;;;;5063682;28;20393;-80
2023/09/08 08:26:18;;;;;;;7.10;6.47;;;;;;;;;;5059496;28;20455;-79
2023/09/08 08:28:44;;;;;;;8.60;7.53;;;;;;;;;;5053712;28;20385;-78
2023/09/08 08:31:10;;;;;;;7.53;6.83;;;;;;;;;;5047281;28;20397;-80
2023/09/08 08:33:36;;;;;;;8.88;7.68;;;;;;;;;;5064860;28;20389;-80
2023/09/08 08:36:03;;;;;;;13.00;11.70;;;;;;;;;;5063751;28;20484;-79
2023/09/08 08:38:29;;;;;;;12.73;11.53;;;;;;;;;;5046956;28;20468;-78
2023/09/08 08:40:55;;;;;;;12.75;11.50;;;;;;;;;;5038095;28;20395;-79
2023/09/08 08:43:22;;;;;;;9.85;8.13;;;;;;;;;;5062832;28;20387;-78
2023/09/08 08:45:49;;;;;;;8.52;7.72;;;;;;;;;;5062854;28;20390;-78
2023/09/08 08:48:16;;;;;;;8.25;7.45;;;;;;;;;;5062821;28;20727;-78
2023/09/08 08:50:42;;;;;;;9.88;8.82;;;;;;;;;;5058918;28;20379;-78
2023/09/08 08:53:09;;;;;;;8.50;7.70;;;;;;;;;;5059082;28;20386;-78
2023/09/08 08:55:35;;;;;;;9.02;8.23;;;;;;;;;;5052168;28;20447;-80
2023/09/08 08:58:03;;;;;;;10.43;8.45;;;;;;;;;;5062892;28;20392;-79
2023/09/08 09:00:29;;;;;;;9.18;8.27;;;;;;;;;;5063289;28;20525;-78
2023/09/08 09:02:56;;;;;;;11.93;10.02;;;;;;;;;;5062593;28;20451;-78
2023/09/08 09:05:22;;;;;;;10.60;9.55;;;;;;;;;;5044147;28;20390;-79
2023/09/08 09:07:48;;;;;;;17.73;14.30;;;;;;;;;;5050611;28;20738;-79
2023/09/08 09:10:15;;;;;;;18.58;14.57;;;;;;;;;;5047899;28;20383;-79
2023/09/08 09:12:41;;;;;;;17.08;13.85;;;;;;;;;;5044346;28;20393;-79
2023/09/08 09:15:11;;;;;;;20.03;15.73;;;;;;;;;;5052544;28;20504;-79
2023/09/08 09:17:38;;;;;;;16.83;13.00;;;;;;;;;;5046357;28;20788;-78
2023/09/08 09:20:17;;;;;;;12.57;11.30;;;;;;;;;;5053553;28;20398;-79
2023/09/08 09:22:43;;;;;;;13.52;11.93;;;;;;;;;;5059771;28;20374;-79
2023/09/08 09:25:10;;;;;;;16.45;12.55;;;;;;;;;;5063514;28;20378;-79
2023/09/08 09:27:40;;;;;;;13.05;11.60;;;;;;;;;;5062264;28;20381;-79
2023/09/08 09:30:07;;;;;;;12.40;11.18;;;;;;;;;;5055611;28;20426;-78
2023/09/08 09:32:35;;;;;;;10.65;9.65;;;;;;;;;;5057018;28;20392;-78
2023/09/08 09:35:01;;;;;;;11.82;9.82;;;;;;;;;;5050168;28;20404;-78
2023/09/08 09:37:29;;;;;;;13.65;11.50;;;;;;;;;;5063397;28;20504;-79
2023/09/08 09:39:55;;;;;;;11.48;9.57;;;;;;;;;;5058526;28;20849;-79
2023/09/08 09:42:22;;;;;;;11.13;9.60;;;;;;;;;;5043443;28;20387;-79
2023/09/08 09:44:52;;;;;;;12.02;10.05;;;;;;;;;;5060597;28;20389;-79
2023/09/08 09:47:19;;;;;;;11.00;10.00;;;;;;;;;;5062580;28;20397;-79
2023/09/08 09:49:46;;;;;;;11.77;10.67;;;;;;;;;;5060496;28;20385;-79
2023/09/08 09:52:15;;;;;;;11.87;10.43;;;;;;;;;;5052241;28;20416;-79
2023/09/08 09:54:42;;;;;;;10.20;9.20;;;;;;;;;;5047937;28;20401;-79
2023/09/08 09:57:09;;;;;;;9.73;8.93;;;;;;;;;;5049823;28;20393;-79
2023/09/08 09:59:36;;;;;;;10.77;9.88;;;;;;;;;;5063477;28;20888;-79
2023/09/08 10:02:02;;;;;;;9.90;9.10;;;;;;;;;;5043423;28;20398;-79
2023/09/08 10:04:29;;;;;;;9.00;8.30;;;;;;;;;;5042539;28;20379;-79
2023/09/08 10:06:57;;;;;;;8.45;7.75;;;;;;;;;;5041505;28;20391;-80
2023/09/08 10:09:23;;;;;;;8.48;7.82;;;;;;;;;;5057787;28;20417;-80
2023/09/08 10:11:49;;;;;;;8.68;7.88;;;;;;;;;;5046170;28;20419;-79
2023/09/08 10:14:15;;;;;;;9.93;9.00;;;;;;;;;;5061587;28;20864;-80
2023/09/08 10:16:44;;;;;;;18.90;15.32;;;;;;;;;;5053209;28;20815;-79
2023/09/08 10:19:10;;;;;;;17.00;13.75;;;;;;;;;;5059984;28;20390;-79
2023/09/08 10:21:39;;;;;;;15.70;13.98;;;;;;;;;;5062878;28;20912;-79
2023/09/08 10:24:12;;;;;;;18.63;15.52;;;;;;;;;;5062561;28;20882;-79
2023/09/08 10:26:41;;;;;;;17.45;15.05;;;;;;;;;;5051225;28;20423;-81
2023/09/08 10:29:07;;;;;;;13.00;11.50;;;;;;;;;;5061908;28;20386;-79
2023/09/08 10:31:33;;;;;;;11.83;10.60;;;;;;;;;;5041260;28;20394;-79
2023/09/08 10:34:00;;;;;;;12.90;10.93;;;;;;;;;;5043032;28;20395;-79
2023/09/08 10:36:26;;;;;;;9.13;8.43;;;;;;;;;;5062545;28;20440;-80
2023/09/08 10:38:54;;;;;;;11.10;10.20;;;;;;;;;;5064661;28;20411;-82
2023/09/08 10:41:23;;;;;;;8.80;7.70;;;;;;;;;;5066672;28;20373;-81
2023/09/08 10:43:57;;;;;;;7.70;7.07;;;;;;;;;;5067079;28;20392;-82
2023/09/08 10:46:24;;;;;;;9.30;8.32;;;;;;;;;;5067410;28;20443;-80
2023/09/08 10:48:50;;;;;;;10.50;9.50;;;;;;;;;;5067202;28;20390;-79
2023/09/08 10:51:21;;;;;;;13.30;12.00;;;;;;;;;;5051925;28;20434;-81
2023/09/08 10:53:49;;;;;;;9.50;8.70;;;;;;;;;;5050191;28;20463;-81
2023/09/08 10:56:15;;;;;;;9.30;8.50;;;;;;;;;;5046953;28;20414;-81
2023/09/08 10:58:43;;;;;;;8.02;7.35;;;;;;;;;;5046045;28;20455;-81
2023/09/08 11:01:13;;;;;;;9.35;7.88;;;;;;;;;;5057978;28;20461;-80
2023/09/08 11:03:39;;;;;;;9.75;8.95;;;;;;;;;;5059737;28;20387;-78
2023/09/08 11:06:06;;;;;;;9.77;8.88;;;;;;;;;;5045895;28;20399;-79
2023/09/08 11:08:37;;;;;;;9.20;8.30;;;;;;;;;;5058385;28;20413;-79
2023/09/08 11:11:03;;;;;;;9.20;8.32;;;;;;;;;;5065533;28;20381;-80
2023/09/08 11:13:29;;;;;;;9.60;8.70;;;;;;;;;;5063490;28;20408;-79
2023/09/08 11:15:56;;;;;;;8.07;7.38;;;;;;;;;;5044768;28;20441;-78
2023/09/08 11:18:33;;;;;;;11.47;10.37;;;;;;;;;;5055353;28;20391;-81
2023/09/08 11:20:59;;;;;;;8.93;8.13;;;;;;;;;;5049211;28;20381;-79
2023/09/08 11:23:26;;;;;;;10.80;9.80;;;;;;;;;;5064784;28;20405;-79
2023/09/08 11:25:52;;;;;;;13.15;9.90;;;;;;;;;;5066394;28;20385;-80
2023/09/08 11:28:18;;;;;;;11.50;10.30;;;;;;;;;;5065855;28;20406;-80
2023/09/08 11:30:48;;;;;;;10.27;9.17;;;;;;;;;;5066951;28;20397;-80
2023/09/08 11:33:24;;;;;;;7.97;7.22;;;;;;;;;;5060142;28;20383;-81
2023/09/08 11:35:50;;;;;;;7.50;6.80;;;;;;;;;;5046417;28;20415;-80
2023/09/08 11:38:16;;;;;;;7.43;6.50;;;;;;;;;;5046071;28;20386;-80
2023/09/08 11:40:42;;;;;;;7.70;6.90;;;;;;;;;;5045816;28;20387;-80
2023/09/08 11:43:08;;;;;;;7.00;6.30;;;;;;;;;;5046321;28;20439;-80
2023/09/08 11:45:35;;;;;;;7.85;7.10;;;;;;;;;;5046885;28;20394;-81
2023/09/08 11:48:01;;;;;;;10.63;8.73;;;;;;;;;;5047118;28;20383;-81
2023/09/08 11:50:27;;;;;;;9.18;8.27;;;;;;;;;;5045969;28;20451;-81
2023/09/08 11:52:54;;;;;;;11.18;10.05;;;;;;;;;;5045988;28;20442;-80
2023/09/08 11:55:21;;;;;;;6.78;6.28;;;;;;;;;;5043327;28;20427;-81
2023/09/08 11:57:48;;;;;;;6.70;6.10;;;;;;;;;;5042555;28;20417;-80
2023/09/08 12:00:17;;;;;;;6.10;5.50;;;;;;;;;;5045388;28;20391;-80
2023/09/08 12:02:43;;;;;;;5.28;4.88;;;;;;;;;;5044745;28;20379;-80
2023/09/08 12:05:13;;;;;;;6.30;5.30;;;;;;;;;;5044600;28;20387;-80
2023/09/08 12:07:39;;;;;;;5.10;4.77;;;;;;;;;;5051627;28;20395;-81
2023/09/08 12:10:11;;;;;;;5.97;5.45;;;;;;;;;;5065842;28;20389;-81
2023/09/08 12:12:48;;;;;;;6.20;5.70;;;;;;;;;;5065497;28;20389;-81
2023/09/08 12:15:31;;;;;;;6.00;5.50;;;;;;;;;;5066568;28;20413;-82
2023/09/08 12:17:58;;;;;;;6.40;5.80;;;;;;;;;;5032669;28;20384;-81
2023/09/08 12:20:23;;;;;;;6.10;5.50;;;;;;;;;;5059161;28;20382;-81
2023/09/08 12:22:50;;;;;;;6.65;6.10;;;;;;;;;;5066056;28;20501;-81
2023/09/08 12:25:16;;;;;;;6.10;5.60;;;;;;;;;;5066132;28;20447;-81
2023/09/08 12:27:42;;;;;;;8.75;7.38;;;;;;;;;;5038093;28;20392;-81
2023/09/08 12:30:09;;;;;;;5.68;5.10;;;;;;;;;;5054790;28;20389;-81
2023/09/08 12:32:36;;;;;;;6.20;5.70;;;;;;;;;;5060344;28;20391;-81
2023/09/08 12:35:03;;;;;;;6.10;5.30;;;;;;;;;;5065539;28;20408;-81
2023/09/08 12:37:30;;;;;;;6.07;5.57;;;;;;;;;;5064946;28;20389;-81
2023/09/08 12:39:56;;;;;;;5.50;5.00;;;;;;;;;;5065516;28;20374;-81
2023/09/08 12:42:25;;;;;;;5.53;5.03;;;;;;;;;;5065537;28;20383;-81
2023/09/08 12:44:51;;;;;;;5.90;5.40;;;;;;;;;;5064403;28;20389;-81
2023/09/08 12:47:17;;;;;;;5.28;4.60;;;;;;;;;;5059700;28;20422;-81
2023/09/08 12:49:45;;;;;;;5.10;4.63;;;;;;;;;;5044579;28;20422;-81
2023/09/08 12:52:11;;;;;;;4.60;4.20;;;;;;;;;;5045327;28;20410;-82
2023/09/08 12:54:37;;;;;;;4.70;4.30;;;;;;;;;;5045321;28;20970;-81
2023/09/08 12:57:03;;;;;;;4.30;3.90;;;;;;;;;;5046130;28;20415;-81
2023/09/08 12:59:29;;;;;;;4.70;4.30;;;;;;;;;;5046094;28;20379;-81
2023/09/08 13:01:56;;;;;;;5.50;4.60;;;;;;;;;;5039411;28;21743;-80
2023/09/08 13:04:22;;;;;;;4.43;4.03;;;;;;;;;;5040844;28;20398;-81
2023/09/08 13:06:49;;;;;;;4.47;4.07;;;;;;;;;;5045075;28;20395;-81
2023/09/08 13:09:15;;;;;;;4.50;4.10;;;;;;;;;;5050008;28;20415;-81
2023/09/08 13:11:41;;;;;;;4.78;4.38;;;;;;;;;;5049986;28;20466;-81
2023/09/08 13:14:07;;;;;;;4.82;4.43;;;;;;;;;;5055355;28;20392;-81
2023/09/08 13:16:33;;;;;;;5.20;4.80;;;;;;;;;;5061291;28;20421;-81
2023/09/08 13:19:00;;;;;;;4.82;4.28;;;;;;;;;;5062930;28;20373;-81
2023/09/08 13:21:26;;;;;;;4.90;4.15;;;;;;;;;;5043765;28;20397;-80
2023/09/08 13:23:51;;;;;;;4.68;4.00;;;;;;;;;;5038433;28;20844;-81
2023/09/08 13:26:17;;;;;;;4.47;4.18;;;;;;;;;;5043194;28;20425;-80
2023/09/08 13:28:43;;;;;;;4.30;4.00;;;;;;;;;;5043877;28;20391;-81
2023/09/08 13:31:09;;;;;;;4.50;4.20;;;;;;;;;;5042284;28;20387;-81
2023/09/08 13:33:35;;;;;;;4.60;4.20;;;;;;;;;;5043811;28;20418;-81
2023/09/08 13:36:01;;;;;;;4.25;3.95;;;;;;;;;;5043345;28;20419;-81
2023/09/08 13:38:27;;;;;;;4.50;4.10;;;;;;;;;;5043358;28;20429;-81
2023/09/08 13:40:53;;;;;;;5.57;5.07;;;;;;;;;;5043079;28;20426;-82
2023/09/08 13:43:19;;;;;;;5.10;4.60;;;;;;;;;;5043630;28;20387;-81
2023/09/08 13:45:45;;;;;;;4.53;4.22;;;;;;;;;;5043289;28;20394;-82
2023/09/08 13:48:11;;;;;;;4.57;4.17;;;;;;;;;;5042085;28;20395;-84
2023/09/08 13:50:42;;;;;;;4.77;4.37;;;;;;;;;;5037923;28;20405;-80
2023/09/08 13:53:08;;;;;;;4.70;4.40;;;;;;;;;;5030427;28;20426;-80
2023/09/08 13:55:34;;;;;;;4.50;4.10;;;;;;;;;;5040589;28;20540;-81
2023/09/08 13:58:00;;;;;;;5.93;4.67;;;;;;;;;;5039397;28;20888;-80
2023/09/08 14:00:26;;;;;;;4.65;4.25;;;;;;;;;;5040617;28;20379;-81
2023/09/08 14:02:52;;;;;;;5.05;4.65;;;;;;;;;;5039485;28;20886;-80
2023/09/08 14:05:19;;;;;;;4.65;4.35;;;;;;;;;;5039429;28;20402;-80
2023/09/08 14:07:45;;;;;;;5.05;4.55;;;;;;;;;;5053213;28;20729;-81
2023/09/08 14:10:11;;;;;;;4.80;4.40;;;;;;;;;;5051839;28;20488;-81
2023/09/08 14:12:37;;;;;;;4.65;4.25;;;;;;;;;;5054628;28;20395;-81
2023/09/08 14:15:03;;;;;;;5.00;4.18;;;;;;;;;;5042330;28;20409;-84
2023/09/08 14:17:29;;;;;;;4.75;4.30;;;;;;;;;;5045825;28;20391;-84
2023/09/08 14:19:55;;;;;;;4.75;4.35;;;;;;;;;;5054913;28;20416;-84
2023/09/08 14:22:21;;;;;;;4.50;4.20;;;;;;;;;;5064588;28;20730;-84
2023/09/08 14:24:47;;;;;;;4.18;3.88;;;;;;;;;;5065452;28;20388;-84
2023/09/08 14:27:13;;;;;;;4.50;4.20;;;;;;;;;;5064065;28;20385;-84
2023/09/08 14:29:39;;;;;;;4.32;4.03;;;;;;;;;;5049900;28;20383;-84
2023/09/08 14:32:05;;;;;;;4.53;4.13;;;;;;;;;;5065002;28;20400;-84
2023/09/08 14:34:31;;;;;;;4.67;4.27;;;;;;;;;;5057114;28;20400;-85
2023/09/08 14:36:57;;;;;;;4.80;4.40;;;;;;;;;;5064093;28;20405;-84